Kyra, Russia
Current Conditions -  °F | °C
As of 10:00 PM on Friday 31 Oct 2014 (Local Time) from UIAA Reporting Station
Clear Clear  
Wind Chill:   Ceiling: Unl
Heat Index:   Visibility: 6mi
Dew Point:   Wind: 0mph
Humidity: 85%   Direction: NA
Pressure: 29.97"   Gusts: NA
Location:  49.58°N, 111.97°E
Report Text: UIAA 311300Z 00000MPS 9999 SKC M13/M15 Q1015 NOSIG RMK QFE70329CLRD70
Loading
Personal Weather Stations






























Interactive Weather Map
Tropical Storm Tracking
New forecast layout! Learn more

10-Day Weather Forecast

Advertisements
Track Severe Weather on mobile